Terminal Aerodrome Forecast
Issued by NWS

Home | Current Version | Previous Version | Text Only | Print | Product List | Glossary On
Versions: 1 2 3 4 5 6 7 8 9 10 11 12 13 14 15 16 17
409
FTUS46 KPDT 141728
TAFPSC
TAF
KPSC 141728Z 1418/1518 22009KT P6SM VCSH SCT050 BKN070 OVC090
     FM142100 23011KT P6SM BKN080 OVC150
     FM150600 22015G25KT P6SM BKN250=

USA.gov is the U.S. government's official web portal to all federal, state and local government web resources and services.